Time;durP1;ratioP1;P1;durP2;ratioP2;P2;SDS_P1;SDS_P2;PMS_P1;PMS_P2;Temp;Humidity;BMP_temperature;BMP_pressure;BME280_temperature;BME280_humidity;BME280_pressure;Samples;Min_cycle;Max_cycle;Signal;HPM_P1;HPM_P2
2021/07/03 00:00:19;;;;;;;37.75;30.65;;;;;;;;;;5034691;28;20154;-66
2021/07/03 00:02:45;;;;;;;37.22;29.92;;;;;;;;;;5052546;28;20029;-66
2021/07/03 00:05:11;;;;;;;36.42;29.67;;;;;;;;;;5052260;28;20031;-66
2021/07/03 00:07:37;;;;;;;36.42;28.80;;;;;;;;;;5052454;28;20366;-66
2021/07/03 00:10:05;;;;;;;38.33;29.13;;;;;;;;;;5052463;28;20086;-66
2021/07/03 00:12:33;;;;;;;38.45;27.98;;;;;;;;;;5052414;28;20032;-66
2021/07/03 00:14:59;;;;;;;37.08;27.75;;;;;;;;;;5034260;28;20021;-66
2021/07/03 00:17:25;;;;;;;36.75;29.15;;;;;;;;;;5052231;28;20036;-66
2021/07/03 00:19:51;;;;;;;38.28;30.83;;;;;;;;;;5052118;28;20021;-66
2021/07/03 00:22:17;;;;;;;39.78;30.42;;;;;;;;;;5052255;28;20021;-66
2021/07/03 00:24:43;;;;;;;39.22;29.88;;;;;;;;;;5034235;28;20392;-67
2021/07/03 00:27:09;;;;;;;43.85;32.38;;;;;;;;;;5051832;28;20554;-67
2021/07/03 00:29:35;;;;;;;41.15;30.20;;;;;;;;;;5052014;28;20025;-67
2021/07/03 00:32:01;;;;;;;36.47;28.20;;;;;;;;;;5033968;28;20079;-67
2021/07/03 00:34:27;;;;;;;37.03;29.15;;;;;;;;;;5034041;28;20025;-67
2021/07/03 00:36:53;;;;;;;39.92;31.17;;;;;;;;;;5051816;28;20031;-67
2021/07/03 00:39:19;;;;;;;38.60;30.52;;;;;;;;;;5033923;28;20424;-67
2021/07/03 00:41:45;;;;;;;41.65;31.05;;;;;;;;;;5033832;28;20033;-66
2021/07/03 00:44:11;;;;;;;37.38;30.05;;;;;;;;;;5051139;28;20024;-67
2021/07/03 00:46:37;;;;;;;42.35;31.10;;;;;;;;;;5051694;28;20112;-67
2021/07/03 00:49:03;;;;;;;45.33;34.88;;;;;;;;;;5051895;28;20078;-67
2021/07/03 00:51:29;;;;;;;47.97;35.17;;;;;;;;;;5050978;28;20397;-67
2021/07/03 00:53:55;;;;;;;41.50;29.95;;;;;;;;;;5051483;28;20029;-67
2021/07/03 00:56:21;;;;;;;38.38;30.70;;;;;;;;;;5051343;28;20021;-67
2021/07/03 00:58:47;;;;;;;42.92;31.30;;;;;;;;;;5073751;22;20120;-62
2021/07/03 01:01:13;;;;;;;42.97;30.20;;;;;;;;;;5033713;28;20048;-62
2021/07/03 01:03:39;;;;;;;41.42;33.03;;;;;;;;;;5034084;28;20025;-62
2021/07/03 01:06:05;;;;;;;41.92;31.65;;;;;;;;;;5034581;28;20025;-62
2021/07/03 01:08:31;;;;;;;40.92;31.25;;;;;;;;;;5034542;28;20027;-62
2021/07/03 01:10:57;;;;;;;42.30;29.80;;;;;;;;;;5034443;28;20460;-63
2021/07/03 01:13:27;;;;;;;39.47;31.27;;;;;;;;;;5034685;28;20029;-63
2021/07/03 01:15:53;;;;;;;46.03;35.45;;;;;;;;;;5051861;28;20028;-62
2021/07/03 01:18:19;;;;;;;46.00;35.95;;;;;;;;;;5052236;28;20092;-63
2021/07/03 01:20:46;;;;;;;45.35;35.17;;;;;;;;;;5034336;28;20020;-63
2021/07/03 01:23:12;;;;;;;38.97;31.48;;;;;;;;;;5052182;28;20033;-62
2021/07/03 01:25:38;;;;;;;39.58;28.95;;;;;;;;;;5034329;28;20370;-62
2021/07/03 01:28:06;;;;;;;38.70;29.40;;;;;;;;;;5052111;28;20036;-61
2021/07/03 01:30:32;;;;;;;40.78;28.70;;;;;;;;;;5034170;28;20029;-63
2021/07/03 01:32:58;;;;;;;39.22;30.38;;;;;;;;;;5034477;28;20021;-62
2021/07/03 01:35:26;;;;;;;35.45;27.45;;;;;;;;;;5051769;28;20025;-62
2021/07/03 01:37:52;;;;;;;40.38;29.70;;;;;;;;;;5034204;28;20424;-63
2021/07/03 01:40:18;;;;;;;40.28;28.50;;;;;;;;;;5033952;28;20098;-63
2021/07/03 01:42:44;;;;;;;35.38;27.15;;;;;;;;;;5052007;28;20057;-64
2021/07/03 01:45:10;;;;;;;36.85;29.40;;;;;;;;;;5033932;28;20421;-63
2021/07/03 01:47:46;;;;;;;40.05;28.67;;;;;;;;;;5051884;28;20028;-63
2021/07/03 01:50:13;;;;;;;34.03;27.55;;;;;;;;;;5033887;28;20036;-62
2021/07/03 01:52:39;;;;;;;38.70;27.92;;;;;;;;;;5051724;28;20025;-63
2021/07/03 01:55:06;;;;;;;38.63;29.15;;;;;;;;;;5033657;28;20568;-63
2021/07/03 01:57:32;;;;;;;50.40;39.92;;;;;;;;;;5033946;28;20028;-63
2021/07/03 01:59:58;;;;;;;40.40;32.25;;;;;;;;;;5051543;28;20025;-64
2021/07/03 02:02:24;;;;;;;41.72;32.55;;;;;;;;;;5036967;28;20090;-63
2021/07/03 02:04:50;;;;;;;47.08;38.20;;;;;;;;;;5037714;28;20427;-63
2021/07/03 02:07:16;;;;;;;48.35;39.60;;;;;;;;;;5037810;28;20120;-63
2021/07/03 02:09:42;;;;;;;40.78;29.98;;;;;;;;;;5055528;28;20021;-63
2021/07/03 02:12:08;;;;;;;44.75;35.05;;;;;;;;;;5037797;28;20472;-63
2021/07/03 02:14:34;;;;;;;36.33;28.63;;;;;;;;;;5037559;28;20025;-63
2021/07/03 02:17:00;;;;;;;40.60;31.35;;;;;;;;;;5056169;28;20025;-62
2021/07/03 02:19:26;;;;;;;49.92;43.08;;;;;;;;;;5037381;28;20025;-61
2021/07/03 02:21:52;;;;;;;53.20;43.28;;;;;;;;;;5037609;28;20078;-62
2021/07/03 02:24:18;;;;;;;48.95;40.17;;;;;;;;;;5037442;28;20029;-62
2021/07/03 02:26:44;;;;;;;44.60;37.28;;;;;;;;;;5037521;28;20025;-63
2021/07/03 02:29:10;;;;;;;35.65;28.13;;;;;;;;;;5037542;28;20029;-64
2021/07/03 02:31:36;;;;;;;40.35;30.42;;;;;;;;;;5037339;28;20028;-62
2021/07/03 02:34:03;;;;;;;37.55;28.83;;;;;;;;;;5055377;28;20025;-63
2021/07/03 02:36:29;;;;;;;38.08;29.00;;;;;;;;;;5055103;28;20040;-62
2021/07/03 02:38:55;;;;;;;41.70;30.17;;;;;;;;;;5037247;28;20021;-64
2021/07/03 02:41:21;;;;;;;38.58;28.60;;;;;;;;;;5055382;28;20502;-63
2021/07/03 02:43:49;;;;;;;35.75;28.95;;;;;;;;;;5037340;28;20024;-64
2021/07/03 02:46:15;;;;;;;41.75;32.40;;;;;;;;;;5054952;28;20079;-62
2021/07/03 02:48:41;;;;;;;42.50;32.33;;;;;;;;;;5037145;28;20064;-63
2021/07/03 02:51:07;;;;;;;44.70;34.75;;;;;;;;;;5036971;28;20029;-61
2021/07/03 02:53:33;;;;;;;44.92;36.63;;;;;;;;;;5055012;28;20075;-63
2021/07/03 02:56:01;;;;;;;42.05;30.83;;;;;;;;;;5036858;28;20464;-63
2021/07/03 02:58:27;;;;;;;45.95;33.25;;;;;;;;;;5054540;28;20032;-63
2021/07/03 03:00:53;;;;;;;46.55;38.67;;;;;;;;;;5037016;28;20055;-62
2021/07/03 03:03:19;;;;;;;37.10;28.33;;;;;;;;;;5036834;28;20036;-63
2021/07/03 03:05:45;;;;;;;43.10;31.77;;;;;;;;;;5036587;28;20024;-62
2021/07/03 03:08:11;;;;;;;47.47;31.08;;;;;;;;;;5037033;28;20020;-63
2021/07/03 03:10:37;;;;;;;38.38;30.00;;;;;;;;;;5036737;28;20053;-64
2021/07/03 03:13:03;;;;;;;39.13;29.80;;;;;;;;;;5053609;28;20245;-61
2021/07/03 03:15:29;;;;;;;39.47;29.63;;;;;;;;;;5054324;28;20025;-63
2021/07/03 03:17:55;;;;;;;36.40;28.63;;;;;;;;;;5054335;28;20396;-62
2021/07/03 03:20:21;;;;;;;35.70;29.08;;;;;;;;;;5036152;28;20037;-62
2021/07/03 03:22:47;;;;;;;40.75;30.38;;;;;;;;;;5054545;28;20025;-62
2021/07/03 03:25:13;;;;;;;41.17;29.38;;;;;;;;;;5054241;28;20025;-63
2021/07/03 03:27:39;;;;;;;41.78;29.38;;;;;;;;;;5036554;28;20170;-63
2021/07/03 03:30:06;;;;;;;43.30;30.13;;;;;;;;;;5036259;28;20032;-62
2021/07/03 03:32:32;;;;;;;40.47;32.67;;;;;;;;;;5036526;28;20116;-63
2021/07/03 03:34:58;;;;;;;43.72;31.90;;;;;;;;;;5053917;28;20092;-63
2021/07/03 03:37:24;;;;;;;38.47;29.88;;;;;;;;;;5036402;28;20513;-62
2021/07/03 03:39:50;;;;;;;41.42;29.90;;;;;;;;;;5053720;28;20397;-62
2021/07/03 03:42:16;;;;;;;41.15;31.75;;;;;;;;;;5053981;28;20043;-62
2021/07/03 03:44:42;;;;;;;41.33;32.00;;;;;;;;;;5053770;28;20096;-63
2021/07/03 03:47:08;;;;;;;40.45;31.33;;;;;;;;;;5036346;28;20028;-63
2021/07/03 03:49:34;;;;;;;39.00;29.30;;;;;;;;;;5053909;28;20465;-62
2021/07/03 03:52:00;;;;;;;42.42;29.48;;;;;;;;;;5053734;28;20025;-62
2021/07/03 03:54:26;;;;;;;37.78;29.73;;;;;;;;;;5053698;28;20553;-63
2021/07/03 03:57:21;;;;;;;39.80;30.73;;;;;;;;;;5035746;28;20021;-63
2021/07/03 03:59:38;;;;;;;39.70;32.05;;;;;;;;;;5053375;28;20120;-63
2021/07/03 04:02:05;;;;;;;38.33;28.63;;;;;;;;;;5036086;28;20416;-63
2021/07/03 04:04:31;;;;;;;42.25;32.10;;;;;;;;;;5053694;28;20029;-63
2021/07/03 04:06:56;;;;;;;41.88;32.25;;;;;;;;;;5035914;28;20480;-63
2021/07/03 04:09:22;;;;;;;41.72;33.00;;;;;;;;;;5035632;28;20025;-63
2021/07/03 04:11:49;;;;;;;45.50;35.03;;;;;;;;;;5035751;28;20025;-63
2021/07/03 04:14:15;;;;;;;47.20;35.47;;;;;;;;;;5053186;28;20420;-63
2021/07/03 04:16:41;;;;;;;48.08;36.70;;;;;;;;;;5052866;28;20021;-63
2021/07/03 04:19:07;;;;;;;44.25;35.08;;;;;;;;;;5053200;28;20025;-64
2021/07/03 04:21:33;;;;;;;49.05;36.63;;;;;;;;;;5053366;28;20485;-63
2021/07/03 04:23:58;;;;;;;46.33;35.60;;;;;;;;;;5035147;28;20040;-63
2021/07/03 04:26:24;;;;;;;48.25;36.65;;;;;;;;;;5035401;28;20020;-58
2021/07/03 04:28:50;;;;;;;49.28;35.78;;;;;;;;;;5034912;28;20040;-63
2021/07/03 04:31:16;;;;;;;45.72;36.08;;;;;;;;;;5052960;28;20025;-64
2021/07/03 04:33:42;;;;;;;45.38;34.95;;;;;;;;;;5035208;28;20029;-63
2021/07/03 04:36:08;;;;;;;45.50;35.55;;;;;;;;;;5034938;28;20456;-63
2021/07/03 04:38:34;;;;;;;46.53;36.97;;;;;;;;;;5052904;28;20017;-63
2021/07/03 04:41:01;;;;;;;48.20;35.38;;;;;;;;;;5035076;28;20485;-62
2021/07/03 04:43:27;;;;;;;44.88;34.22;;;;;;;;;;5052955;28;20109;-63
2021/07/03 04:45:53;;;;;;;45.30;35.95;;;;;;;;;;5052490;28;20060;-63
2021/07/03 04:48:19;;;;;;;46.47;36.10;;;;;;;;;;5052778;28;20025;-63
2021/07/03 04:50:45;;;;;;;47.50;35.70;;;;;;;;;;5052072;28;20021;-57
2021/07/03 04:53:11;;;;;;;45.42;35.50;;;;;;;;;;5052731;28;20032;-62
2021/07/03 04:55:37;;;;;;;50.40;35.42;;;;;;;;;;5034477;28;20028;-62
2021/07/03 04:58:03;;;;;;;47.90;37.47;;;;;;;;;;5034915;28;20340;-63
2021/07/03 05:00:29;;;;;;;45.35;36.85;;;;;;;;;;5052211;28;20044;-63
2021/07/03 05:02:55;;;;;;;47.78;36.88;;;;;;;;;;5052571;28;20075;-63
2021/07/03 05:05:21;;;;;;;46.60;33.72;;;;;;;;;;5052203;28;20032;-63
2021/07/03 05:07:47;;;;;;;46.25;35.60;;;;;;;;;;5034285;28;20029;-63
2021/07/03 05:10:13;;;;;;;48.08;36.42;;;;;;;;;;5052353;28;20036;-62
2021/07/03 05:12:39;;;;;;;45.67;33.42;;;;;;;;;;5052289;28;20017;-63
2021/07/03 05:15:05;;;;;;;47.10;33.90;;;;;;;;;;5052124;28;20484;-61
2021/07/03 05:17:31;;;;;;;43.47;32.55;;;;;;;;;;5034503;28;20017;-62
2021/07/03 05:19:57;;;;;;;44.22;33.33;;;;;;;;;;5052154;28;20055;-63
2021/07/03 05:22:23;;;;;;;46.40;33.63;;;;;;;;;;5052135;28;20021;-62
2021/07/03 05:24:49;;;;;;;45.08;34.35;;;;;;;;;;5051735;28;20484;-62
2021/07/03 05:27:15;;;;;;;38.38;30.90;;;;;;;;;;5034355;28;20028;-62
2021/07/03 05:29:41;;;;;;;40.83;30.67;;;;;;;;;;5033764;28;20013;-62
2021/07/03 05:32:08;;;;;;;35.67;28.98;;;;;;;;;;5051954;28;20035;-62
2021/07/03 05:34:34;;;;;;;36.67;28.80;;;;;;;;;;5051903;28;20074;-63
2021/07/03 05:37:00;;;;;;;38.15;30.23;;;;;;;;;;5051314;28;20104;-61
2021/07/03 05:39:26;;;;;;;38.25;29.02;;;;;;;;;;5051961;28;20071;-61
2021/07/03 05:41:52;;;;;;;34.78;26.95;;;;;;;;;;5051615;28;20035;-63
2021/07/03 05:44:20;;;;;;;33.97;28.48;;;;;;;;;;5051656;28;20025;-63
2021/07/03 05:46:46;;;;;;;39.72;31.13;;;;;;;;;;5051986;28;20032;-63
2021/07/03 05:49:12;;;;;;;38.38;31.30;;;;;;;;;;5033678;28;20037;-62
2021/07/03 05:51:38;;;;;;;45.35;32.30;;;;;;;;;;5033981;28;20377;-63
2021/07/03 05:54:04;;;;;;;43.85;33.60;;;;;;;;;;5051795;28;20150;-63
2021/07/03 05:56:30;;;;;;;41.55;32.40;;;;;;;;;;5051384;28;20021;-62
2021/07/03 05:58:56;;;;;;;41.38;31.73;;;;;;;;;;5033795;28;20111;-61
2021/07/03 06:01:23;;;;;;;42.20;32.72;;;;;;;;;;5051546;28;20052;-63
2021/07/03 06:03:49;;;;;;;42.80;35.15;;;;;;;;;;5034220;28;20025;-62
2021/07/03 06:06:15;;;;;;;46.30;35.97;;;;;;;;;;5051647;28;20025;-62
2021/07/03 06:08:41;;;;;;;42.50;32.90;;;;;;;;;;5051644;28;20039;-63
2021/07/03 06:11:07;;;;;;;39.40;31.33;;;;;;;;;;5051532;28;20049;-63
2021/07/03 06:13:35;;;;;;;43.47;32.83;;;;;;;;;;5033605;28;20118;-63
2021/07/03 06:16:01;;;;;;;42.90;34.70;;;;;;;;;;5051360;28;20107;-61
2021/07/03 06:18:26;;;;;;;41.05;31.70;;;;;;;;;;5033761;28;20159;-63
2021/07/03 06:20:53;;;;;;;41.53;31.13;;;;;;;;;;5051328;28;20032;-62
2021/07/03 06:23:19;;;;;;;42.58;33.65;;;;;;;;;;5051447;28;20432;-63
2021/07/03 06:25:45;;;;;;;39.60;28.52;;;;;;;;;;5051095;28;20104;-63
2021/07/03 06:28:11;;;;;;;39.85;30.10;;;;;;;;;;5051408;28;20029;-63
2021/07/03 06:30:37;;;;;;;42.00;32.67;;;;;;;;;;5033276;28;20033;-63
2021/07/03 06:33:03;;;;;;;41.83;30.75;;;;;;;;;;5033629;28;20053;-62
2021/07/03 06:35:29;;;;;;;36.63;27.73;;;;;;;;;;5034032;28;20626;-63
2021/07/03 06:37:55;;;;;;;35.88;26.52;;;;;;;;;;5051830;28;20451;-62
2021/07/03 06:40:21;;;;;;;45.42;34.22;;;;;;;;;;5033270;28;20477;-62
2021/07/03 06:42:47;;;;;;;41.00;30.15;;;;;;;;;;5051260;28;20531;-61
2021/07/03 06:45:13;;;;;;;40.50;31.05;;;;;;;;;;5050380;28;20029;-61
2021/07/03 06:47:39;;;;;;;42.60;32.63;;;;;;;;;;5051566;28;20086;-62
2021/07/03 06:50:05;;;;;;;44.17;32.53;;;;;;;;;;5054585;28;20035;-62
2021/07/03 06:52:31;;;;;;;42.83;31.67;;;;;;;;;;5055241;28;20469;-62
2021/07/03 06:54:57;;;;;;;42.60;34.97;;;;;;;;;;5036722;28;20611;-62
2021/07/03 06:57:23;;;;;;;41.63;31.60;;;;;;;;;;5055045;28;20040;-63
2021/07/03 06:59:49;;;;;;;40.78;31.77;;;;;;;;;;5041438;23;20143;-62
2021/07/03 07:02:18;;;;;;;41.95;33.55;;;;;;;;;;5014877;28;20022;-62
2021/07/03 07:04:44;;;;;;;41.50;32.42;;;;;;;;;;5014499;28;20026;-62
2021/07/03 07:07:10;;;;;;;40.70;32.50;;;;;;;;;;4997280;28;20132;-60
2021/07/03 07:09:36;;;;;;;46.22;34.08;;;;;;;;;;5013441;28;20141;-62
2021/07/03 07:12:02;;;;;;;44.55;32.65;;;;;;;;;;5014564;28;20045;-63
2021/07/03 07:14:28;;;;;;;44.15;31.52;;;;;;;;;;5014262;28;20030;-63
2021/07/03 07:16:54;;;;;;;43.47;32.55;;;;;;;;;;5014563;28;20032;-63
2021/07/03 07:19:20;;;;;;;42.45;33.30;;;;;;;;;;5013314;28;20014;-63
2021/07/03 07:21:46;;;;;;;37.47;30.63;;;;;;;;;;5013452;28;20086;-64
2021/07/03 07:24:12;;;;;;;42.47;30.40;;;;;;;;;;5014056;28;20034;-61
2021/07/03 07:26:39;;;;;;;42.13;31.40;;;;;;;;;;5014285;28;20030;-64
2021/07/03 07:29:05;;;;;;;38.92;30.45;;;;;;;;;;5014476;28;20383;-63
2021/07/03 07:31:31;;;;;;;39.78;32.42;;;;;;;;;;5014451;28;20038;-63
2021/07/03 07:33:57;;;;;;;43.03;33.17;;;;;;;;;;5013110;28;20025;-61
2021/07/03 07:36:23;;;;;;;37.67;28.65;;;;;;;;;;5014008;28;20050;-61
2021/07/03 07:38:49;;;;;;;37.00;29.48;;;;;;;;;;5013708;28;20486;-64
2021/07/03 07:41:15;;;;;;;38.10;29.88;;;;;;;;;;5011108;28;20030;-63
2021/07/03 07:43:42;;;;;;;43.60;32.20;;;;;;;;;;5013791;28;20022;-63
2021/07/03 07:46:08;;;;;;;38.42;31.05;;;;;;;;;;5012278;28;20030;-64
2021/07/03 07:48:34;;;;;;;36.35;30.40;;;;;;;;;;5012652;28;20030;-65
2021/07/03 07:51:01;;;;;;;40.53;32.17;;;;;;;;;;5013595;28;20153;-64
2021/07/03 07:53:31;;;;;;;40.80;29.73;;;;;;;;;;5013824;28;20079;-64
2021/07/03 07:55:57;;;;;;;41.17;30.75;;;;;;;;;;5013851;28;20489;-63
2021/07/03 07:58:24;;;;;;;39.05;32.60;;;;;;;;;;5013379;28;20050;-64
2021/07/03 08:00:50;;;;;;;39.88;29.15;;;;;;;;;;5012278;28;20393;-64
2021/07/03 08:03:16;;;;;;;40.60;30.00;;;;;;;;;;5012297;28;20053;-62
2021/07/03 08:05:43;;;;;;;41.00;30.40;;;;;;;;;;5013403;28;20101;-64
2021/07/03 08:08:09;;;;;;;36.63;29.38;;;;;;;;;;5012221;28;20034;-63
2021/07/03 08:10:36;;;;;;;38.10;31.27;;;;;;;;;;5012558;28;20036;-61
2021/07/03 08:13:03;;;;;;;39.40;31.67;;;;;;;;;;5012992;28;20104;-63
2021/07/03 08:15:31;;;;;;;41.00;30.35;;;;;;;;;;5011911;28;20474;-61
2021/07/03 08:17:57;;;;;;;37.53;30.85;;;;;;;;;;5013571;28;20026;-61
2021/07/03 08:20:23;;;;;;;36.90;30.70;;;;;;;;;;5011741;28;20041;-61
2021/07/03 08:22:49;;;;;;;39.15;30.55;;;;;;;;;;5012069;28;20117;-62
2021/07/03 08:25:17;;;;;;;39.70;31.17;;;;;;;;;;5013077;28;20033;-61
2021/07/03 08:27:43;;;;;;;38.00;28.57;;;;;;;;;;5013120;28;20033;-62
2021/07/03 08:30:09;;;;;;;38.22;29.48;;;;;;;;;;5012855;28;20049;-62
2021/07/03 08:32:35;;;;;;;36.03;29.40;;;;;;;;;;5012790;28;20483;-62
2021/07/03 08:35:02;;;;;;;40.45;30.35;;;;;;;;;;5012978;28;20109;-62
2021/07/03 08:37:27;;;;;;;40.38;31.25;;;;;;;;;;5011704;28;20022;-62
2021/07/03 08:39:53;;;;;;;34.20;29.77;;;;;;;;;;5011958;28;20037;-63
2021/07/03 08:42:19;;;;;;;39.80;32.65;;;;;;;;;;5012691;28;20053;-62
2021/07/03 08:44:46;;;;;;;38.67;31.48;;;;;;;;;;5011512;28;20398;-62
2021/07/03 08:47:12;;;;;;;40.17;32.45;;;;;;;;;;5012882;28;20060;-63
2021/07/03 08:49:38;;;;;;;39.92;30.92;;;;;;;;;;5012629;28;20055;-63
2021/07/03 08:52:04;;;;;;;40.83;31.75;;;;;;;;;;5011370;28;20022;-63
2021/07/03 08:54:30;;;;;;;39.65;31.67;;;;;;;;;;5011135;28;20025;-63
2021/07/03 08:57:00;;;;;;;37.30;30.73;;;;;;;;;;5012705;28;20364;-63
2021/07/03 08:59:27;;;;;;;38.45;29.38;;;;;;;;;;5010263;28;20041;-65
2021/07/03 09:01:55;;;;;;;39.60;30.15;;;;;;;;;;5012704;28;20140;-63
2021/07/03 09:04:37;;;;;;;42.95;32.53;;;;;;;;;;5012229;28;20033;-63
2021/07/03 09:07:13;;;;;;;38.35;30.75;;;;;;;;;;5013059;28;20492;-63
2021/07/03 09:09:39;;;;;;;37.13;29.02;;;;;;;;;;5012141;28;20056;-63
2021/07/03 09:12:06;;;;;;;38.70;28.92;;;;;;;;;;5010228;28;20037;-63
2021/07/03 09:14:32;;;;;;;35.92;27.08;;;;;;;;;;5010689;28;20029;-63
2021/07/03 09:16:59;;;;;;;36.40;30.85;;;;;;;;;;5012646;28;20390;-64
2021/07/03 09:19:29;;;;;;;37.65;32.00;;;;;;;;;;5012367;28;20026;-63
2021/07/03 09:21:55;;;;;;;38.47;30.17;;;;;;;;;;5012371;28;20057;-63
2021/07/03 09:24:21;;;;;;;35.67;28.02;;;;;;;;;;5011994;28;20105;-63
2021/07/03 09:27:02;;;;;;;34.78;28.10;;;;;;;;;;5011975;28;20087;-63
2021/07/03 09:29:28;;;;;;;37.38;29.90;;;;;;;;;;5010729;28;20030;-63
2021/07/03 09:31:55;;;;;;;42.88;31.42;;;;;;;;;;5010384;28;20069;-62
2021/07/03 09:34:24;;;;;;;33.72;27.98;;;;;;;;;;5010234;28;20026;-63
2021/07/03 09:36:50;;;;;;;33.35;27.70;;;;;;;;;;5010763;28;20294;-63
2021/07/03 09:39:22;;;;;;;37.75;28.88;;;;;;;;;;5011717;28;20022;-62
2021/07/03 09:41:49;;;;;;;31.27;25.48;;;;;;;;;;5010700;28;20049;-62
2021/07/03 09:44:15;;;;;;;34.67;28.10;;;;;;;;;;5010750;28;20410;-62
2021/07/03 09:46:49;;;;;;;35.20;27.27;;;;;;;;;;5010825;28;20026;-62
2021/07/03 09:49:18;;;;;;;34.22;28.15;;;;;;;;;;5011877;28;20370;-62
2021/07/03 09:51:46;;;;;;;33.95;27.02;;;;;;;;;;5011926;28;20026;-62
2021/07/03 09:54:13;;;;;;;34.07;28.57;;;;;;;;;;5011747;28;20107;-63
2021/07/03 09:56:40;;;;;;;33.45;28.00;;;;;;;;;;5011815;28;20752;-62
2021/07/03 09:59:07;;;;;;;30.75;26.30;;;;;;;;;;5010411;28;20026;-62
2021/07/03 10:01:33;;;;;;;33.20;27.30;;;;;;;;;;5011875;28;20034;-62
2021/07/03 10:04:02;;;;;;;35.65;25.80;;;;;;;;;;5010532;28;20653;-63
2021/07/03 10:06:44;;;;;;;31.27;26.42;;;;;;;;;;5011462;28;20033;-62
2021/07/03 10:09:19;;;;;;;31.73;24.83;;;;;;;;;;5011921;28;20026;-62
2021/07/03 10:11:48;;;;;;;30.80;26.52;;;;;;;;;;5010129;28;20497;-62
2021/07/03 10:14:14;;;;;;;32.53;25.63;;;;;;;;;;5011363;28;20041;-62
2021/07/03 10:16:40;;;;;;;30.58;26.98;;;;;;;;;;5009955;28;20025;-63
2021/07/03 10:19:13;;;;;;;33.67;28.35;;;;;;;;;;5010018;28;20021;-63
2021/07/03 10:21:40;;;;;;;28.95;25.10;;;;;;;;;;5012082;28;20041;-63
2021/07/03 10:24:15;;;;;;;32.40;28.40;;;;;;;;;;5015229;28;20436;-63
2021/07/03 10:26:41;;;;;;;30.42;25.60;;;25.40;92.40;;;;;;5013955;28;20498;-63
2021/07/03 10:29:23;;;;;;;27.83;23.58;;;23.80;99.90;;;;;;5015362;28;20033;-63
2021/07/03 10:31:51;;;;;;;30.10;26.58;;;23.60;99.90;;;;;;5014069;28;20033;-63
2021/07/03 10:34:30;;;;;;;29.70;25.63;;;23.50;99.90;;;;;;5013658;28;20026;-63
2021/07/03 10:37:02;;;;;;;31.88;27.17;;;23.60;99.90;;;;;;5013866;28;20120;-63
2021/07/03 10:39:32;;;;;;;28.98;23.23;;;23.50;99.90;;;;;;5014987;28;20022;-62
2021/07/03 10:41:59;;;;;;;30.98;24.65;;;;;;;;;;5014153;28;20062;-63
2021/07/03 10:44:35;;;;;;;30.42;25.42;;;;;;;;;;5014973;28;20041;-63
2021/07/03 10:47:06;;;;;;;34.88;26.38;;;;;;;;;;5013558;28;20026;-63
2021/07/03 10:49:35;;;;;;;28.38;24.85;;;;;;;;;;5014070;28;20053;-63
2021/07/03 10:52:09;;;;;;;29.52;26.35;;;;;;;;;;5014764;28;20030;-63
2021/07/03 10:54:35;;;;;;;26.38;23.35;;;;;;;;;;5014844;28;20018;-63
2021/07/03 10:57:21;;;;;;;25.02;22.33;;;;;;;;;;5014942;28;20029;-63
2021/07/03 10:59:47;;;;;;;27.35;23.38;;;;;;;;;;5014640;28;20593;-63
2021/07/03 11:02:13;;;;;;;27.88;24.88;;;;;;;;;;5014775;28;20203;-63
2021/07/03 11:04:45;;;;;;;26.85;24.05;;;;;;;;;;5014532;28;20394;-63
2021/07/03 11:07:15;;;;;;;28.98;25.88;;;;;;;;;;5014255;28;20041;-63
2021/07/03 11:09:41;;;;;;;27.70;24.73;;;;;;;;;;5014754;28;20438;-63
2021/07/03 11:12:15;;;;;;;27.80;24.85;;;;;;;;;;5015454;28;20030;-63
2021/07/03 11:14:51;;;;;;;25.75;23.05;;;23.90;99.90;;;;;;5015317;28;20029;-63
2021/07/03 11:17:17;;;;;;;24.63;22.00;;;26.70;99.90;;;;;;5014433;28;20022;-63
2021/07/03 11:19:47;;;;;;;26.38;22.90;;;;;;;;;;5014511;28;20036;-67
2021/07/03 11:22:14;;;;;;;27.05;23.90;;;26.90;99.90;;;;;;5014482;28;20024;-64
2021/07/03 11:24:40;;;;;;;26.65;23.90;;;;;;;;;;5013347;28;20092;-64
2021/07/03 11:27:06;;;;;;;27.20;23.98;;;;;;;;;;5003041;28;20550;-65
2021/07/03 11:29:32;;;;;;;26.20;23.48;;;;;;;;;;5002854;28;20065;-63
2021/07/03 11:32:06;;;;;;;26.70;23.75;;;;;;;;;;5004911;28;20050;-63
2021/07/03 11:34:32;;;;;;;27.67;24.00;;;;;;;;;;5009420;28;20018;-63
2021/07/03 11:36:58;;;;;;;27.00;24.10;;;;;;;;;;5012299;28;20447;-64
2021/07/03 11:39:24;;;;;;;26.55;23.02;;;;;;;;;;5009669;28;20101;-64
2021/07/03 11:41:58;;;;;;;25.67;23.10;;;;;;;;;;5013416;28;20189;-64
2021/07/03 11:44:25;;;;;;;25.30;22.35;;;;;;;;;;5013393;28;20022;-63
2021/07/03 11:46:51;;;;;;;26.05;23.55;;;;;;;;;;5013296;28;20064;-64
2021/07/03 11:49:17;;;;;;;26.83;24.13;;;;;;;;;;5013162;28;20418;-66
2021/07/03 11:51:43;;;;;;;26.85;24.15;;;;;;;;;;5012739;28;20052;-62
2021/07/03 11:54:09;;;;;;;27.00;23.02;;;;;;;;;;5012271;28;20033;-62
2021/07/03 11:56:35;;;;;;;26.38;23.77;;;;;;;;;;5012639;28;20347;-63
2021/07/03 11:59:02;;;;;;;27.13;24.33;;;30.70;94.30;;;;;;5011838;28;20022;-63
2021/07/03 12:01:28;;;;;;;27.05;23.65;;;29.70;93.30;;;;;;5012534;28;20048;-61
2021/07/03 12:03:54;;;;;;;26.30;23.63;;;29.40;92.90;;;;;;5012383;28;20034;-61
2021/07/03 12:06:23;;;;;;;24.90;22.23;;;;;;;;;;5010902;28;20037;-62
2021/07/03 12:08:49;;;;;;;;;;;;;;;;;;5012571;28;20085;-62
2021/07/03 12:11:20;;;;;;;25.02;22.48;;;;;;;;;;5012283;28;19910;-62
2021/07/03 12:13:51;;;;;;;23.90;21.50;;;27.90;93.90;;;;;;5013190;28;20026;-62
2021/07/03 12:16:19;;;;;;;25.40;22.67;;;30.30;93.00;;;;;;5013095;28;20049;-61
2021/07/03 12:18:49;;;;;;;24.60;21.90;;;;;;;;;;5013101;28;20060;-60
2021/07/03 12:21:26;;;;;;;23.38;20.92;;;;;;;;;;5013123;28;20482;-62
2021/07/03 12:23:54;;;;;;;23.77;21.20;;;;;;;;;;5012887;28;20038;-63
2021/07/03 12:26:24;;;;;;;25.95;22.90;;;31.50;92.50;;;;;;5012728;28;20099;-61
2021/07/03 12:28:59;;;;;;;24.55;21.92;;;;;;;;;;5011675;28;20026;-61
2021/07/03 12:31:35;;;;;;;24.52;22.02;;;;;;;;;;5012771;28;20025;-62
2021/07/03 12:34:09;;;;;;;24.30;21.70;;;27.90;92.80;;;;;;5012951;28;20537;-61
2021/07/03 12:36:37;;;;;;;24.90;22.35;;;;;;;;;;5013129;28;20026;-60
2021/07/03 12:39:09;;;;;;;24.27;21.67;;;27.00;93.80;;;;;;5011890;28;20022;-61
2021/07/03 12:41:37;;;;;;;24.20;21.67;;;28.30;93.10;;;;;;5012477;28;20048;-62
2021/07/03 12:44:03;;;;;;;26.42;23.83;;;29.30;94.00;;;;;;5011558;28;20030;-60
2021/07/03 12:46:33;;;;;;;25.42;22.73;;;29.10;92.90;;;;;;5012371;28;20109;-62
2021/07/03 12:49:00;;;;;;;24.67;21.45;;;;;;;;;;5012667;28;20497;-64
2021/07/03 12:51:33;;;;;;;24.67;22.05;;;;;;;;;;5012749;28;20062;-64
2021/07/03 12:54:02;;;;;;;23.70;21.38;;;;;;;;;;5012995;28;20403;-64
2021/07/03 12:56:28;;;;;;;25.15;22.65;;;;;;;;;;5012709;28;20032;-64
2021/07/03 12:59:02;;;;;;;23.90;21.50;;;;;;;;;;5011608;28;20014;-63
2021/07/03 13:01:38;;;;;;;25.30;22.70;;;;;;;;;;5043774;23;20493;-64
2021/07/03 13:04:05;;;;;;;24.50;22.00;;;;;;;;;;5031151;28;20022;-63
2021/07/03 13:06:31;;;;;;;23.83;21.33;;;;;;;;;;5032621;28;20028;-62
2021/07/03 13:08:57;;;;;;;24.00;21.45;;;;;;;;;;4682682;28;9999663;-63
2021/07/03 13:11:27;;;;;;;24.50;21.98;;;;;;;;;;5030436;28;20075;-63
2021/07/03 13:13:53;;;;;;;25.15;22.75;;;;;;;;;;5035220;28;20068;-64
2021/07/03 13:16:19;;;;;;;24.40;21.88;;;;;;;;;;5030207;28;20180;-64
2021/07/03 13:18:45;;;;;;;24.83;22.27;;;;;;;;;;5012697;28;20025;-64
2021/07/03 13:21:11;;;;;;;23.33;21.13;;;;;;;;;;5031490;28;20040;-62
2021/07/03 13:23:37;;;;;;;25.42;22.92;;;29.10;92.90;;;;;;5030237;28;20040;-64
2021/07/03 13:26:05;;;;;;;24.42;21.92;;;33.80;87.50;;;;;;5029320;28;20033;-61
2021/07/03 13:28:31;;;;;;;25.13;22.63;;;34.70;87.80;;;;;;5029075;28;20029;-64
2021/07/03 13:30:57;;;;;;;25.80;23.15;;;33.90;84.40;;;;;;5034441;28;20025;-63
2021/07/03 13:33:22;;;;;;;24.05;21.75;;;32.50;86.40;;;;;;5013972;28;20032;-64
2021/07/03 13:35:48;;;;;;;23.85;21.55;;;32.60;83.30;;;;;;5028807;28;20374;-64
2021/07/03 13:38:13;;;;;;;24.30;21.90;;;32.30;84.00;;;;;;5028843;28;20033;-64
2021/07/03 13:40:39;;;;;;;24.38;21.88;;;33.60;83.60;;;;;;5012979;28;20128;-64
2021/07/03 13:43:05;;;;;;;23.88;21.50;;;33.80;81.70;;;;;;5034105;28;20036;-64
2021/07/03 13:45:30;;;;;;;23.33;20.98;;;32.70;81.80;;;;;;5010891;28;20025;-64
2021/07/03 13:47:56;;;;;;;23.83;21.38;;;33.30;82.40;;;;;;5019114;28;20029;-64
2021/07/03 13:50:22;;;;;;;23.75;21.42;;;32.70;80.30;;;;;;5013835;28;20065;-64
2021/07/03 13:52:47;;;;;;;24.02;21.17;;;33.10;83.50;;;;;;5028703;28;20493;-64
2021/07/03 13:55:13;;;;;;;23.17;20.88;;;32.10;79.50;;;;;;5010852;28;20026;-62
2021/07/03 13:57:39;;;;;;;24.67;22.20;;;32.00;80.90;;;;;;5017741;28;20031;-62
2021/07/03 14:00:06;;;;;;;24.70;22.23;;;;;;;;;;5057133;28;20029;-65
2021/07/03 14:02:32;;;;;;;23.13;20.83;;;;;;;;;;5058229;28;20053;-63